createdAt,value
2022-10-20T00:03:34.500Z,-0.24
2022-10-20T00:08:58.730Z,-0.23
2022-10-20T00:14:22.422Z,-0.28
2022-10-20T00:19:45.151Z,-0.27
2022-10-20T00:25:07.292Z,-0.39
2022-10-20T00:30:29.657Z,-0.45
2022-10-20T00:35:52.694Z,-0.52
2022-10-20T00:41:16.786Z,-0.67
2022-10-20T00:46:47.788Z,-0.69
2022-10-20T00:52:11.683Z,-0.66
2022-10-20T00:57:35.178Z,-0.77
2022-10-20T01:03:00.199Z,-0.89
2022-10-20T01:08:22.423Z,-0.94
2022-10-20T01:13:58.343Z,-0.86
2022-10-20T01:19:54.783Z,-0.93
2022-10-20T01:25:44.139Z,-0.93
2022-10-20T01:31:13.651Z,-1.05
2022-10-20T01:36:33.463Z,-1.02
2022-10-20T01:42:05.863Z,-0.93
2022-10-20T01:47:29.612Z,-0.91
2022-10-20T01:52:51.728Z,-1.01
2022-10-20T01:58:45.940Z,-1.06
2022-10-20T02:04:14.377Z,-1.10
2022-10-20T02:09:47.057Z,-1.17
2022-10-20T02:15:10.940Z,-1.15
2022-10-20T02:20:34.823Z,-1.06
2022-10-20T02:26:00.127Z,-1.04
2022-10-20T02:31:23.884Z,-1.30
2022-10-20T02:36:49.977Z,-1.47
2022-10-20T02:42:12.761Z,-1.38
2022-10-20T02:47:35.692Z,-1.52
2022-10-20T02:52:58.253Z,-1.59
2022-10-20T02:58:20.398Z,-1.48
2022-10-20T03:03:42.541Z,-1.54
2022-10-20T03:09:04.715Z,-1.70
2022-10-20T03:14:26.955Z,-1.82
2022-10-20T03:19:49.059Z,-1.83
2022-10-20T03:25:11.417Z,-1.92
2022-10-20T03:30:34.407Z,-1.95
2022-10-20T03:35:56.519Z,-2.03
2022-10-20T03:41:18.945Z,-2.04
2022-10-20T03:46:41.053Z,-2.09
2022-10-20T03:52:03.201Z,-2.04
2022-10-20T03:57:26.511Z,-2.19
2022-10-20T04:02:54.699Z,-2.23
2022-10-20T04:08:16.892Z,-2.18
2022-10-20T04:13:39.605Z,-2.24
2022-10-20T04:19:02.690Z,-2.06
2022-10-20T04:24:25.775Z,-2.07
2022-10-20T04:29:48.015Z,-1.98
2022-10-20T04:35:10.187Z,-2.11
2022-10-20T04:40:32.969Z,-2.14
2022-10-20T04:45:56.787Z,-2.24
2022-10-20T04:51:22.374Z,-2.29
2022-10-20T04:56:44.599Z,-2.28
2022-10-20T05:02:06.854Z,-2.38
2022-10-20T05:07:29.743Z,-2.45
2022-10-20T05:12:51.867Z,-2.34
2022-10-20T05:18:13.983Z,-2.40
2022-10-20T05:23:36.553Z,-2.38
2022-10-20T05:29:02.135Z,-2.49
2022-10-20T05:34:25.475Z,-2.57
2022-10-20T05:45:11.746Z,-2.44
2022-10-20T05:50:33.925Z,-2.31
2022-10-20T05:55:56.150Z,-2.22
2022-10-20T06:01:49.403Z,-2.12
2022-10-20T06:07:12.552Z,-2.05
2022-10-20T06:12:34.855Z,-2.09
2022-10-20T06:17:58.926Z,-1.94
2022-10-20T06:23:21.070Z,-1.92
2022-10-20T06:28:44.778Z,-1.77
2022-10-20T06:34:07.525Z,-1.50
2022-10-20T06:39:32.938Z,-1.29
2022-10-20T06:44:56.932Z,-1.07
2022-10-20T06:50:19.871Z,-0.88
2022-10-20T06:55:42.015Z,-0.70
2022-10-20T07:01:23.555Z,-0.53
2022-10-20T07:06:52.682Z,-0.33
2022-10-20T07:12:15.450Z,0.02
2022-10-20T07:17:37.601Z,0.30
2022-10-20T07:23:00.161Z,0.58
2022-10-20T07:28:22.728Z,0.81
2022-10-20T07:33:56.543Z,1.07
2022-10-20T07:39:14.717Z,1.32
2022-10-20T07:44:36.851Z,1.61
2022-10-20T07:49:59.995Z,1.91
2022-10-20T07:55:38.068Z,2.12
2022-10-20T08:00:46.506Z,2.34
2022-10-20T08:06:08.716Z,2.53
2022-10-20T08:11:31.890Z,3.02
2022-10-20T08:16:58.945Z,3.28
2022-10-20T08:22:21.109Z,3.71
2022-10-20T08:27:43.322Z,4.01
2022-10-20T08:33:07.631Z,4.25
2022-10-20T08:38:30.291Z,4.58
2022-10-20T08:43:55.795Z,5.01
2022-10-20T08:49:21.235Z,5.30
2022-10-20T08:54:45.273Z,5.58
2022-10-20T09:00:21.369Z,5.72
2022-10-20T09:05:47.495Z,5.83
2022-10-20T09:11:12.176Z,6.08
2022-10-20T09:16:58.851Z,6.26
2022-10-20T09:22:09.890Z,6.54
2022-10-20T09:27:43.313Z,6.67
2022-10-20T09:33:06.366Z,6.84
2022-10-20T09:38:39.400Z,7.11
2022-10-20T09:44:20.457Z,7.23
2022-10-20T09:49:46.099Z,7.35
2022-10-20T09:55:24.548Z,7.83
2022-10-20T10:00:53.331Z,9.40
2022-10-20T10:06:35.341Z,10.87
2022-10-20T10:11:59.190Z,10.47
2022-10-20T10:17:23.515Z,11.26
2022-10-20T10:22:48.970Z,10.62
2022-10-20T10:33:49.647Z,11.72
2022-10-20T10:39:14.966Z,12.23
2022-10-20T10:45:11.605Z,13.62
2022-10-20T10:50:58.625Z,13.85
2022-10-20T10:56:37.336Z,11.20
2022-10-20T11:02:28.134Z,12.05
2022-10-20T11:08:01.459Z,12.67
2022-10-20T11:13:52.158Z,13.32
2022-10-20T11:19:54.774Z,13.88
2022-10-20T11:25:38.031Z,13.73
2022-10-20T11:31:00.386Z,12.88
2022-10-20T11:36:25.872Z,13.14
2022-10-20T11:42:01.139Z,13.14
2022-10-20T11:47:28.328Z,13.93
2022-10-20T11:53:43.805Z,13.96
2022-10-20T11:59:32.041Z,13.55
2022-10-20T12:05:47.355Z,13.61
2022-10-20T12:11:25.145Z,14.40
2022-10-20T12:17:12.674Z,15.01
2022-10-20T12:22:45.355Z,14.40
2022-10-20T12:34:17.240Z,12.80
2022-10-20T12:39:41.960Z,13.01
2022-10-20T12:45:06.928Z,13.85
2022-10-20T12:50:50.387Z,13.84
2022-10-20T12:56:28.003Z,13.77
2022-10-20T13:02:19.256Z,13.98
2022-10-20T13:08:04.686Z,13.96
2022-10-20T13:19:00.462Z,13.01
2022-10-20T13:24:44.810Z,13.66
2022-10-20T13:30:05.928Z,14.14
2022-10-20T13:35:35.217Z,14.07
2022-10-20T13:41:23.822Z,14.49
2022-10-20T13:52:50.763Z,14.17
2022-10-20T13:58:20.772Z,14.09
2022-10-20T14:03:48.389Z,13.60
2022-10-20T14:09:18.994Z,13.60
2022-10-20T14:14:43.965Z,13.89
2022-10-20T14:20:18.143Z,14.19
2022-10-20T14:25:42.230Z,13.82
2022-10-20T14:31:16.790Z,13.31
2022-10-20T14:36:46.057Z,11.97
2022-10-20T14:42:10.416Z,11.95
2022-10-20T14:47:39.473Z,12.15
2022-10-20T14:53:01.933Z,12.26
2022-10-20T14:58:47.970Z,12.08
2022-10-20T15:04:33.466Z,11.66
2022-10-20T15:10:08.682Z,10.76
2022-10-20T15:15:43.620Z,10.16
2022-10-20T15:21:12.189Z,9.73
2022-10-20T15:26:34.624Z,9.44
2022-10-20T15:31:57.026Z,8.74
2022-10-20T15:37:19.358Z,8.20
2022-10-20T15:42:41.679Z,7.77
2022-10-20T15:48:03.932Z,7.42
2022-10-20T15:53:26.295Z,7.17
2022-10-20T15:58:50.235Z,6.76
2022-10-20T16:04:27.844Z,6.42
2022-10-20T16:09:50.341Z,6.21
2022-10-20T16:15:12.926Z,5.95
2022-10-20T16:20:35.374Z,5.66
2022-10-20T16:26:01.023Z,5.39
2022-10-20T16:31:30.536Z,5.22
2022-10-20T16:36:52.840Z,5.08
2022-10-20T16:42:15.220Z,4.99
2022-10-20T16:47:38.996Z,4.88
2022-10-20T16:53:02.363Z,4.88
2022-10-20T16:58:25.074Z,4.78
2022-10-20T17:03:49.138Z,4.65
2022-10-20T17:09:12.634Z,4.49
2022-10-20T17:14:35.507Z,4.42
2022-10-20T17:19:57.828Z,4.30
2022-10-20T17:25:21.209Z,4.18
2022-10-20T17:30:45.216Z,4.06
2022-10-20T17:36:08.787Z,4.09
2022-10-20T17:41:32.526Z,4.00
2022-10-20T17:46:55.546Z,3.92
2022-10-20T17:52:17.941Z,3.74
2022-10-20T17:57:42.173Z,3.62
2022-10-20T18:03:08.433Z,3.49
2022-10-20T18:08:31.314Z,3.38
2022-10-20T18:13:54.256Z,3.40
2022-10-20T18:19:20.080Z,3.37
2022-10-20T18:24:43.434Z,3.36
2022-10-20T18:30:05.734Z,3.36
2022-10-20T18:35:28.992Z,3.40
2022-10-20T18:40:53.077Z,3.39
2022-10-20T18:46:16.433Z,3.41
2022-10-20T18:51:39.440Z,3.40
2022-10-20T18:57:03.638Z,3.38
2022-10-20T19:02:29.005Z,3.33
2022-10-20T19:07:51.838Z,3.26
2022-10-20T19:13:16.094Z,3.13
2022-10-20T19:18:43.273Z,3.07
2022-10-20T19:24:16.081Z,2.96
2022-10-20T19:29:38.795Z,2.97
2022-10-20T19:35:02.232Z,3.03
2022-10-20T19:40:27.644Z,2.94
2022-10-20T19:45:49.906Z,2.87
2022-10-20T19:51:12.994Z,2.74
2022-10-20T19:56:35.846Z,2.65
2022-10-20T20:01:58.808Z,2.64
2022-10-20T20:07:21.564Z,2.60
2022-10-20T20:12:43.861Z,2.58
2022-10-20T20:18:06.556Z,2.58
2022-10-20T20:23:40.761Z,2.57
2022-10-20T20:28:54.484Z,2.57
2022-10-20T20:34:17.000Z,2.63
2022-10-20T20:39:39.923Z,2.70
2022-10-20T20:45:03.163Z,2.67
2022-10-20T20:50:26.047Z,2.75
2022-10-20T20:55:48.355Z,2.80
2022-10-20T21:01:22.610Z,2.71
2022-10-20T21:07:01.738Z,2.56
2022-10-20T21:17:33.154Z,2.40
2022-10-20T21:22:55.881Z,2.27
2022-10-20T21:28:18.202Z,2.18
2022-10-20T21:33:41.221Z,2.13
2022-10-20T21:39:04.719Z,2.10
2022-10-20T21:44:28.219Z,2.02
2022-10-20T21:49:50.497Z,2.00
2022-10-20T21:55:13.351Z,1.89
2022-10-20T22:00:36.113Z,1.90
2022-10-20T22:05:59.148Z,1.89
2022-10-20T22:11:26.264Z,1.88
2022-10-20T22:16:51.989Z,1.86
2022-10-20T22:22:14.454Z,1.81
2022-10-20T22:27:42.312Z,1.76
2022-10-20T22:33:00.860Z,1.72
2022-10-20T22:38:23.197Z,1.73
2022-10-20T22:43:46.646Z,1.68
2022-10-20T22:49:09.049Z,1.65
2022-10-20T22:54:31.459Z,1.61
2022-10-20T22:59:53.904Z,1.62
2022-10-20T23:05:16.285Z,1.52
2022-10-20T23:10:38.628Z,1.55
2022-10-20T23:16:03.255Z,1.45
2022-10-20T23:21:26.814Z,1.38
2022-10-20T23:26:49.064Z,1.41
2022-10-20T23:32:11.288Z,1.28
2022-10-20T23:37:33.432Z,1.26
2022-10-20T23:42:55.655Z,1.15
2022-10-20T23:48:17.806Z,1.20
2022-10-20T23:53:40.303Z,1.27
2022-10-20T23:59:02.468Z,1.21
